D/T METAR WX W/DIR W/SPE G/SPE TEMP DEWP
19/03/19 04:20 EGJB 190420Z 29003KT 9999 FEW009 BKN032 08/07 Q1027 WNW (290°) 3.5mph 8°C 7°C
19/03/19 03:50 EGJB 190350Z 30003KT 9999 FEW009 BKN032 08/07 Q1026 WNW (300°) 3.5mph 8°C 7°C
19/03/19 02:50 EGJB 190250Z 31003KT 9999 FEW009 BKN032 08/07 Q1026 NW (310°) 3.5mph 8°C 7°C
19/03/19 01:50 EGJB 190150Z 33003KT 9999 FEW010 BKN030 08/07 Q1026 NNW (330°) 3.5mph 8°C 7°C
19/03/19 00:50 EGJB 190050Z 33003KT 9999 FEW012 SCT032 08/07 Q1026 NNW (330°) 3.5mph 8°C 7°C
18/03/19 23:50 EGJB 182350Z 33004KT 9999 FEW014 07/06 Q1026 NNW (330°) 4.6mph 7°C 6°C
18/03/19 22:50 EGJB 182250Z 32003KT 9999 FEW014 07/06 Q1026 NW (320°) 3.5mph 7°C 6°C
18/03/19 21:50 EGJB 182150Z 33005KT 9999 SCT014 08/06 Q1026 NNW (330°) 5.8mph 8°C 6°C
18/03/19 21:20 EGJB 182120Z 32006KT 9999 SCT014 BKN035 08/06 Q1026 NW (320°) 6.9mph 8°C 6°C
18/03/19 20:50 EGJB 182050Z 32007KT 9999 FEW010 SCT015 BKN030 08/06 Q1025 NW (320°) 8.1mph 8°C 6°C
18/03/19 20:20 EGJB 182020Z 32007KT 9999 FEW010 SCT015 BKN030 08/07 Q1025 NW (320°) 8.1mph 8°C 7°C
18/03/19 19:50 EGJB 181950Z 32007KT 9999 FEW010 SCT018 BKN030 08/07 Q1025 NW (320°) 8.1mph 8°C 7°C
18/03/19 19:20 EGJB 181920Z 31007KT 9999 FEW006 08/07 Q1024 NW (310°) 8.1mph 8°C 7°C
18/03/19 18:50 EGJB 181850Z 29009KT 9999 -RA FEW006 SCT020 BKN035 08/07 Q1025 -RA WNW (290°) 10.4mph 8°C 7°C
18/03/19 18:20 EGJB 181820Z 29008KT 9999 -RA FEW010 SCT015 BKN040 08/07 Q1024 -RA WNW (290°) 9.2mph 8°C 7°C
18/03/19 17:50 EGJB 181750Z 29011KT 9999 FEW010 08/06 Q1024 WNW (290°) 12.7mph 8°C 6°C
18/03/19 17:20 EGJB 181720Z 29011KT 9999 -RA FEW010 SCT012 BKN035 08/06 Q1024 -RA WNW (290°) 12.7mph 8°C 6°C
18/03/19 16:50 EGJB 181650Z 30011KT 9999 -RA FEW010 SCT014 BKN020 08/06 Q1024 -RA WNW (300°) 12.7mph 8°C 6°C
18/03/19 16:20 EGJB 181620Z 30011KT 9999 VCSH FEW010 SCT015 BKN030 08/06 Q1024 VCSH WNW (300°) 12.7mph 8°C 6°C
18/03/19 15:20 EGJB 181520Z 29007KT 9999 VCSH FEW009 SCT025 08/07 Q1024 VCSH WNW (290°) 8.1mph 8°C 7°C
18/03/19 14:50 EGJB 181450Z 29010KT 9999 -SHRA FEW012 SCT020 BKN045 08/06 Q1024 -SHRA WNW (290°) 11.5mph 8°C 6°C
18/03/19 13:50 EGJB 181350Z 26007KT 9999 -SHRA FEW018 SCT025 BKN030 07/06 Q1024 RESHRA -SHRA W (260°) 8.1mph 7°C 6°C
18/03/19 13:20 EGJB 181320Z 28010KT 9999 8000W -SHRA FEW018 BKN030 07/06 Q1024 -SHRA W (280°) 11.5mph 7°C 6°C
18/03/19 12:50 EGJB 181250Z 28015KT 9999 -SHRA FEW018 BKN032 09/04 Q1024 -SHRA W (280°) 17.3mph 9°C 4°C
18/03/19 11:50 EGJB 181150Z 30010KT 9999 -SHRA SCT018 09/05 Q1024 -SHRA WNW (300°) 11.5mph 9°C 5°C
18/03/19 11:20 EGJB 181120Z 30011KT 9999 VCSH SCT018 09/05 Q1024 VCSH WNW (300°) 12.7mph 9°C 5°C
18/03/19 10:20 EGJB 181020Z 31010KT 270V340 9999 FEW020 09/05 Q1024 NW (310°) 11.5mph 9°C 5°C
18/03/19 09:20 EGJB 180920Z 31009KT 9999 SCT018 09/05 Q1024 NW (310°) 10.4mph 9°C 5°C
18/03/19 08:50 EGJB 180850Z 31010KT 9999 SCT018 09/06 Q1023 NW (310°) 11.5mph 9°C 6°C
18/03/19 08:20 EGJB 180820Z 31009KT 9999 VCSH SCT016 09/06 Q1023 VCSH NW (310°) 10.4mph 9°C 6°C
18/03/19 07:50 EGJB 180750Z 31009KT 9999 VCSH SCT016 09/05 Q1023 VCSH NW (310°) 10.4mph 9°C 5°C
18/03/19 07:20 EGJB 180720Z 31009KT 9999 VCSH SCT015 08/05 Q1023 VCSH NW (310°) 10.4mph 8°C 5°C
18/03/19 06:50 EGJB 180650Z 31009KT 9999 VCSH SCT015 08/05 Q1022 VCSH NW (310°) 10.4mph 8°C 5°C
18/03/19 06:20 EGJB 180620Z 31009KT 9999 FEW018 08/05 Q1022 NW (310°) 10.4mph 8°C 5°C
18/03/19 05:50 EGJB 180550Z 31011KT 9999 FEW017 08/04 Q1022 NW (310°) 12.7mph 8°C 4°C
18/03/19 05:20 EGJB 180520Z 31011KT 9999 FEW017 08/05 Q1022 NW (310°) 12.7mph 8°C 5°C
18/03/19 04:50 EGJB 180450Z 32010KT 9999 FEW016 08/05 Q1021 NW (320°) 11.5mph 8°C 5°C
18/03/19 04:20 EGJB 180420Z 31010KT 9999 FEW014 08/05 Q1021 NW (310°) 11.5mph 8°C 5°C
18/03/19 03:50 EGJB 180350Z 31010KT 9999 FEW014 08/05 Q1021 NW (310°) 11.5mph 8°C 5°C
18/03/19 02:50 EGJB 180250Z 31011KT 9999 FEW016 08/05 Q1021 NW (310°) 12.7mph 8°C 5°C
18/03/19 01:50 EGJB 180150Z 31013KT 9999 FEW015 08/06 Q1020 NW (310°) 15.0mph 8°C 6°C
18/03/19 00:50 EGJB 180050Z 31015KT 9999 FEW016 08/06 Q1020 NW (310°) 17.3mph 8°C 6°C
17/03/19 23:50 EGJB 172350Z 30015KT 9999 FEW016 08/06 Q1019 WNW (300°) 17.3mph 8°C 6°C
17/03/19 22:50 EGJB 172250Z 30016KT 9999 FEW017 08/06 Q1018 WNW (300°) 18.4mph 8°C 6°C
17/03/19 21:50 EGJB 172150Z 30014KT 9999 FEW023 08/06 Q1018 WNW (300°) 16.1mph 8°C 6°C
17/03/19 20:50 EGJB 172050Z 30016KT 9999 VCSH BKN023 09/05 Q1017 VCSH WNW (300°) 18.4mph 9°C 5°C
17/03/19 20:20 EGJB 172020Z 29019G31KT 9999 SCT025 09/05 Q1017 WNW (290°) 21.9mph 35.7mph 9°C 5°C
17/03/19 19:50 EGJB 171950Z 29017KT 9999 FEW025 SCT034 08/04 Q1017 WNW (290°) 19.6mph 8°C 4°C
17/03/19 19:20 EGJB 171920Z 29017KT 9999 FEW025 SCT034 09/04 Q1016 WNW (290°) 19.6mph 9°C 4°C
17/03/19 18:50 EGJB 171850Z 29018KT 9999 FEW025 SCT034 08/03 Q1016 WNW (290°) 20.7mph 8°C 3°C
17/03/19 18:20 EGJB 171820Z 29017KT 9999 SCT022 08/02 Q1016 WNW (290°) 19.6mph 8°C 2°C
17/03/19 17:50 EGJB 171750Z 29019KT 9999 SCT022 08/01 Q1015 WNW (290°) 21.9mph 8°C 1°C
17/03/19 17:20 EGJB 171720Z 29018KT 9999 SCT022 08/01 Q1015 WNW (290°) 20.7mph 8°C 1°C
17/03/19 16:50 EGJB 171650Z 30017KT 9999 FEW022 09/02 Q1014 WNW (300°) 19.6mph 9°C 2°C
17/03/19 16:20 EGJB 171620Z 29018KT 9999 FEW020 08/03 Q1014 WNW (290°) 20.7mph 8°C 3°C
17/03/19 15:50 EGJB 171550Z 29016KT 9999 FEW020 09/03 Q1013 WNW (290°) 18.4mph 9°C 3°C
17/03/19 15:20 EGJB 171520Z 29015KT 9999 FEW020 08/03 Q1013 WNW (290°) 17.3mph 8°C 3°C
17/03/19 14:50 EGJB 171450Z 29016KT 9999 FEW015CB 08/03 Q1013 WNW (290°) 18.4mph 8°C 3°C
17/03/19 14:20 EGJB 171420Z 29017KT 9999 FEW015CB SCT018 08/03 Q1013 WNW (290°) 19.6mph 8°C 3°C
17/03/19 13:50 EGJB 171350Z 28016KT 9999 FEW015CB SCT018 08/03 Q1012 W (280°) 18.4mph 8°C 3°C
17/03/19 12:50 EGJB 171250Z 28018KT 9999 VCSH FEW013CB FEW028 07/04 Q1012 VCSH W (280°) 20.7mph 7°C 4°C
17/03/19 12:20 EGJB 171220Z 27023KT 9999 -SHRA SCT013CB FEW028 06/04 Q1012 -SHRA W (270°) 26.5mph 6°C 4°C
17/03/19 11:20 EGJB 171120Z 29013KT 9999 -SHRA SCT020CB FEW028 07/02 Q1011 -SHRA WNW (290°) 15.0mph 7°C 2°C
17/03/19 10:50 EGJB 171050Z 28018KT 9999 VCSH FEW020CB FEW028 08/01 Q1011 VCSH W (280°) 20.7mph 8°C 1°C
17/03/19 09:50 EGJB 170950Z 28015KT 9999 -SHRA SCT020CB FEW028 07/02 Q1010 -SHRA W (280°) 17.3mph 7°C 2°C
17/03/19 09:20 EGJB 170920Z 28017KT 9999 VCSH FEW020CB FEW028 07/02 Q1010 VCSH W (280°) 19.6mph 7°C 2°C
17/03/19 08:50 EGJB 170850Z 29018KT 9999 VCSH FEW020CB FEW028 07/01 Q1009 VCSH WNW (290°) 20.7mph 7°C 1°C
17/03/19 08:20 EGJB 170820Z 29013G25KT 9999 VCSH FEW020CB FEW028 06/02 Q1009 VCSH WNW (290°) 15.0mph 28.8mph 6°C 2°C
17/03/19 07:20 EGJB 170720Z 27013KT 9999 VCSH FEW024CB 06/01 Q1008 VCSH W (270°) 15.0mph 6°C 1°C
17/03/19 06:50 EGJB 170650Z 27020KT 9999 VCSH FEW024CB 06/M00 Q1007 VCSH W (270°) 23.0mph 6°C 0°C
17/03/19 06:20 EGJB 170620Z 28018KT 9999 VCSH FEW026CB 07/00 Q1007 VCSH W (280°) 20.7mph 7°C 0°C
17/03/19 05:50 EGJB 170550Z 27016KT 9999 VCSH FEW026CB SCT030 06/02 Q1006 VCSH W (270°) 18.4mph 6°C 2°C
17/03/19 05:20 EGJB 170520Z 29019G29KT 9999 -SHRA SCT032 06/00 Q1006 -SHRA WNW (290°) 21.9mph 33.4mph 6°C 0°C
17/03/19 04:50 EGJB 170450Z 29018KT 9999 FEW032 07/M01 Q1005 WNW (290°) 20.7mph 7°C -1°C
17/03/19 04:20 EGJB 170420Z 29020KT 9999 VCSH FEW029 07/M01 Q1005 VCSH WNW (290°) 23.0mph 7°C -1°C
17/03/19 03:50 EGJB 170350Z 29016KT 9999 FEW030 07/02 Q1005 WNW (290°) 18.4mph 7°C 2°C
17/03/19 02:50 EGJB 170250Z 29018KT 9999 FEW027 07/01 Q1004 WNW (290°) 20.7mph 7°C 1°C
17/03/19 01:50 EGJB 170150Z 29019KT 9999 FEW026 07/02 Q1004 WNW (290°) 21.9mph 7°C 2°C
17/03/19 00:50 EGJB 170050Z 29016KT 9999 -SHRA BKN022 08/05 Q1003 -SHRA WNW (290°) 18.4mph 8°C 5°C
16/03/19 23:50 EGJB 162350Z 29017KT 9999 FEW016 BKN027 08/06 Q1003 RERA WNW (290°) 19.6mph 8°C 6°C
16/03/19 22:50 EGJB 162250Z 27020KT 9000 RA FEW007 BKN010 08/07 Q1002 RA W (270°) 23.0mph 8°C 7°C
16/03/19 21:50 EGJB 162150Z 27014KT 9999 -RA SCT005 BKN036 08/08 Q1002 RERA -RA W (270°) 16.1mph 8°C 8°C
16/03/19 20:50 EGJB 162050Z 22023G33KT 8000 3500W -RA FEW003 BKN006 BKN009 10/09 Q1001 RERA -RA SW (220°) 26.5mph 38.0mph 10°C 9°C
16/03/19 20:20 EGJB 162020Z 21020KT 4000 RA BKN006 09/09 Q1002 RA SSW (210°) 23.0mph 9°C 9°C
16/03/19 19:50 EGJB 161950Z 21020G31KT 9999 -RA BKN013 10/08 Q1002 -RA SSW (210°) 23.0mph 35.7mph 10°C 8°C
16/03/19 19:20 EGJB 161920Z 21021KT 9999 BKN018 10/07 Q1002 SSW (210°) 24.2mph 10°C 7°C
16/03/19 18:50 EGJB 161850Z 21021KT 9999 SCT021 BKN032 10/07 Q1002 SSW (210°) 24.2mph 10°C 7°C
16/03/19 17:50 EGJB 161750Z 21019KT 9999 FEW022 BKN032 10/07 Q1003 SSW (210°) 21.9mph 10°C 7°C
16/03/19 17:20 EGJB 161720Z 22026KT 9999 SCT022 BKN032 10/07 Q1004 SW (220°) 29.9mph 10°C 7°C
16/03/19 16:50 EGJB 161650Z 22024KT 9999 SCT020 BKN028 10/07 Q1004 SW (220°) 27.6mph 10°C 7°C
16/03/19 16:20 EGJB 161620Z 22024KT 9999 SCT022 BKN032 10/07 Q1005 SW (220°) 27.6mph 10°C 7°C
16/03/19 15:50 EGJB 161550Z 22026KT 9999 SCT022 BKN032 10/07 Q1005 SW (220°) 29.9mph 10°C 7°C
16/03/19 15:20 EGJB 161520Z 22027KT 9999 SCT022 BKN032 10/06 Q1006 SW (220°) 31.1mph 10°C 6°C
16/03/19 14:50 EGJB 161450Z 23023KT 9999 SCT022 BKN032 10/07 Q1007 SW (230°) 26.5mph 10°C 7°C
16/03/19 14:20 EGJB 161420Z 23023KT 9999 FEW025 BKN032 10/07 Q1007 SW (230°) 26.5mph 10°C 7°C
16/03/19 13:50 EGJB 161350Z 23026KT 9999 FEW025 BKN032 11/06 Q1007 SW (230°) 29.9mph 11°C 6°C
16/03/19 13:20 EGJB 161320Z 23024KT 9999 FEW024 BKN032 10/06 Q1008 SW (230°) 27.6mph 10°C 6°C
16/03/19 12:50 EGJB 161250Z 23023KT 9999 FEW024 BKN032 10/07 Q1009 SW (230°) 26.5mph 10°C 7°C
16/03/19 11:50 EGJB 161150Z 22020KT 9999 FEW022 BKN029 10/06 Q1010 SW (220°) 23.0mph 10°C 6°C
16/03/19 11:20 EGJB 161120Z 23022KT 9999 FEW022 BKN030 10/06 Q1010 SW (230°) 25.3mph 10°C 6°C
16/03/19 10:50 EGJB 161050Z 23024G34KT 9999 FEW018 BKN030 10/07 Q1010 SW (230°) 27.6mph 39.1mph 10°C 7°C
16/03/19 09:50 EGJB 160950Z 22020KT 9999 FEW015 BKN025 10/07 Q1011 SW (220°) 23.0mph 10°C 7°C
16/03/19 09:20 EGJB 160920Z 23019KT 9999 -RA BKN018 BKN028 10/07 Q1011 -RA SW (230°) 21.9mph 10°C 7°C
16/03/19 08:20 EGJB 160820Z 23020KT 9999 FEW017 BKN030 10/07 Q1012 SW (230°) 23.0mph 10°C 7°C
16/03/19 07:50 EGJB 160750Z 23021G31KT 9999 SCT016 BKN028 10/07 Q1012 SW (230°) 24.2mph 35.7mph 10°C 7°C
16/03/19 07:20 EGJB 160720Z 23023KT 9999 FEW012 BKN030 10/07 Q1012 SW (230°) 26.5mph 10°C 7°C
16/03/19 06:50 EGJB 160650Z 23020KT 9999 FEW012 BKN028 10/08 Q1012 SW (230°) 23.0mph 10°C 8°C
16/03/19 06:20 EGJB 160620Z 24021KT 9999 FEW012 BKN028 10/08 Q1013 WSW (240°) 24.2mph 10°C 8°C
16/03/19 05:50 EGJB 160550Z 24020KT 9999 FEW008 SCT014 BKN024 09/08 Q1013 WSW (240°) 23.0mph 9°C 8°C
16/03/19 05:20 EGJB 160520Z 24022KT 9999 -RA FEW008 SCT014 BKN024 09/08 Q1013 -RA WSW (240°) 25.3mph 9°C 8°C
16/03/19 04:50 EGJB 160450Z 24022KT 9000 -RA SCT008 BKN014 09/08 Q1014 -RA WSW (240°) 25.3mph 9°C 8°C
16/03/19 04:20 EGJB 160420Z 24020KT 9999 FEW008 SCT015 BKN024 10/09 Q1014 WSW (240°) 23.0mph 10°C 9°C
16/03/19 03:50 EGJB 160350Z 24018KT 9999 -RA FEW008 SCT015 BKN024 10/09 Q1014 -RA WSW (240°) 20.7mph 10°C 9°C
16/03/19 02:50 EGJB 160250Z 24020KT 9999 FEW008 BKN034 10/09 Q1014 WSW (240°) 23.0mph 10°C 9°C
16/03/19 01:50 EGJB 160150Z 23019KT 9999 FEW006 BKN008 10/09 Q1015 SW (230°) 21.9mph 10°C 9°C
16/03/19 00:50 EGJB 160050Z 23019KT 9999 FEW006 SCT010 BKN022 10/09 Q1016 SW (230°) 21.9mph 10°C 9°C
15/03/19 23:50 EGJB 152350Z 24020KT 9999 FEW006 SCT012 BKN016 10/09 Q1017 WSW (240°) 23.0mph 10°C 9°C
15/03/19 22:50 EGJB 152250Z 24020KT 9999 FEW005 SCT006 BKN016 10/09 Q1017 WSW (240°) 23.0mph 10°C 9°C
15/03/19 22:20 EGJB 152220Z 24020KT 9999 FEW004 SCT006 BKN016 10/09 Q1017 WSW (240°) 23.0mph 10°C 9°C
15/03/19 21:50 EGJB 152150Z 24018KT 9999 FEW004 BKN006 10/09 Q1017 WSW (240°) 20.7mph 10°C 9°C
15/03/19 21:20 EGJB 152120Z 24020KT 9999 -DZ FEW004 SCT006 BKN008 10/09 Q1017 -DZ WSW (240°) 23.0mph 10°C 9°C
15/03/19 20:50 EGJB 152050Z 25019KT 9999 -DZ FEW003 SCT006 BKN012 10/09 Q1017 -DZ WSW (250°) 21.9mph 10°C 9°C
15/03/19 20:20 EGJB 152020Z 25021KT 7000 -DZ FEW001 BKN003 10/10 Q1017 -DZ WSW (250°) 24.2mph 10°C 10°C
15/03/19 19:50 EGJB 151950Z 25021KT 9000 -DZ FEW003 BKN005 10/10 Q1017 -DZ WSW (250°) 24.2mph 10°C 10°C
15/03/19 19:20 EGJB 151920Z 25023KT 1600 -DZ BR FEW001 BKN002 10/10 Q1017 -DZ BR WSW (250°) 26.5mph 10°C 10°C
15/03/19 18:50 EGJB 151850Z 25024KT 9000 FEW005 BKN008 10/09 Q1017 WSW (250°) 27.6mph 10°C 9°C
15/03/19 18:20 EGJB 151820Z 25024KT 8000 -DZ SCT006 BKN008 10/09 Q1017 -DZ WSW (250°) 27.6mph 10°C 9°C
15/03/19 17:50 EGJB 151750Z 25020KT 8000 -DZ BKN004 10/10 Q1017 -DZ WSW (250°) 23.0mph 10°C 10°C
15/03/19 17:20 EGJB 151720Z 26023KT 9999 -DZ BKN005 BKN009 10/09 Q1017 -DZ W (260°) 26.5mph 10°C 9°C
15/03/19 16:50 EGJB 151650Z 26024G34KT 9999 FEW007 BKN009 BKN017 11/09 Q1017 W (260°) 27.6mph 39.1mph 11°C 9°C
15/03/19 16:20 EGJB 151620Z 25026KT 9999 FEW009 BKN018 11/09 Q1017 WSW (250°) 29.9mph 11°C 9°C
15/03/19 15:50 EGJB 151550Z 26024KT 9999 SCT009 BKN012 11/09 Q1017 W (260°) 27.6mph 11°C 9°C
15/03/19 15:20 EGJB 151520Z 26025KT 9999 FEW007 BKN009 11/09 Q1017 W (260°) 28.8mph 11°C 9°C
15/03/19 14:50 EGJB 151450Z 26026KT 9999 BKN008 11/10 Q1017 W (260°) 29.9mph 11°C 10°C
15/03/19 14:20 EGJB 151420Z 26024G34KT 9000 FEW006 BKN008 11/10 Q1017 W (260°) 27.6mph 39.1mph 11°C 10°C
15/03/19 13:50 EGJB 151350Z 25025KT 9000 BKN007 11/10 Q1017 WSW (250°) 28.8mph 11°C 10°C
15/03/19 13:20 EGJB 151320Z 26024KT 9000 BKN007 11/10 Q1017 W (260°) 27.6mph 11°C 10°C
15/03/19 12:50 EGJB 151250Z 25026G36KT 8000 FEW006 BKN008 11/10 Q1017 WSW (250°) 29.9mph 41.4mph 11°C 10°C
15/03/19 12:20 EGJB 151220Z 25024KT 8000 SCT004 BKN005 11/10 Q1017 WSW (250°) 27.6mph 11°C 10°C
15/03/19 11:50 EGJB 151150Z 26026KT 6000 SCT003 BKN004 11/11 Q1017 W (260°) 29.9mph 11°C 11°C
15/03/19 11:20 EGJB 151120Z 26027G37KT 5000 -DZ BKN003 11/11 Q1017 -DZ W (260°) 31.1mph 42.6mph 11°C 11°C
15/03/19 10:50 EGJB 151050Z 25029KT 2800 -DZ BR BKN003 11/10 Q1016 -DZ BR WSW (250°) 33.4mph 11°C 10°C
15/03/19 10:20 EGJB 151020Z 26026KT 5000 -DZ SCT005 BKN006 11/10 Q1017 -DZ W (260°) 29.9mph 11°C 10°C
15/03/19 09:50 EGJB 150950Z 26026G36KT 8000 FEW005 BKN006 11/10 Q1017 W (260°) 29.9mph 41.4mph 11°C 10°C